Terminal Aerodrome Forecast
Issued by NWS

Home | Current Version | Previous Version | Text Only | Print | Product List | Glossary On
Versions: 1 2 3 4 5 6 7 8 9 10 11 12 13 14 15 16 17 18 19 20 21 22 23 24
000
FTUS46 KSGX 282100 AAA
TAFSAN
TAF AMD
KSAN 282106Z 2821/2924 26005KT P6SM BKN250
     FM290100 VRB05KT P6SM SCT015 SCT120 BKN250
     FM292100 27005KT P6SM FEW015 SCT120 BKN250=

USA.gov is the U.S. government's official web portal to all federal, state and local government web resources and services.